sensor_id;sensor_type;location;lat;lon;timestamp;temperature;humidity
37702;DHT22;23548;51.196;6.838;2022-08-25T00:00:42;23.70;65.70
37702;DHT22;23548;51.196;6.838;2022-08-25T00:03:09;23.70;65.10
37702;DHT22;23548;51.196;6.838;2022-08-25T00:05:35;23.70;65.50
37702;DHT22;23548;51.196;6.838;2022-08-25T00:08:02;23.60;65.70
37702;DHT22;23548;51.196;6.838;2022-08-25T00:10:32;23.50;66.00
37702;DHT22;23548;51.196;6.838;2022-08-25T00:13:00;23.40;66.90
37702;DHT22;23548;51.196;6.838;2022-08-25T00:15:27;23.30;66.90
37702;DHT22;23548;51.196;6.838;2022-08-25T00:17:53;23.20;68.10
37702;DHT22;23548;51.196;6.838;2022-08-25T00:20:19;23.10;68.70
37702;DHT22;23548;51.196;6.838;2022-08-25T00:22:45;23.10;68.60
37702;DHT22;23548;51.196;6.838;2022-08-25T00:25:10;23.00;69.00
37702;DHT22;23548;51.196;6.838;2022-08-25T00:27:37;23.00;68.80
37702;DHT22;23548;51.196;6.838;2022-08-25T00:30:04;23.00;69.30
37702;DHT22;23548;51.196;6.838;2022-08-25T00:32:30;23.00;69.00
37702;DHT22;23548;51.196;6.838;2022-08-25T00:34:57;23.00;69.70
37702;DHT22;23548;51.196;6.838;2022-08-25T00:37:23;23.00;69.90
37702;DHT22;23548;51.196;6.838;2022-08-25T00:39:48;23.00;70.10
37702;DHT22;23548;51.196;6.838;2022-08-25T00:42:14;23.00;70.50
37702;DHT22;23548;51.196;6.838;2022-08-25T00:44:41;22.90;71.30
37702;DHT22;23548;51.196;6.838;2022-08-25T00:47:08;22.80;71.40
37702;DHT22;23548;51.196;6.838;2022-08-25T00:52:13;22.60;72.90
37702;DHT22;23548;51.196;6.838;2022-08-25T00:55:04;22.50;73.70
37702;DHT22;23548;51.196;6.838;2022-08-25T00:57:37;22.50;73.30
37702;DHT22;23548;51.196;6.838;2022-08-25T01:00:08;22.50;73.00
37702;DHT22;23548;51.196;6.838;2022-08-25T01:02:36;22.40;73.40
37702;DHT22;23548;51.196;6.838;2022-08-25T01:05:02;22.30;73.60
37702;DHT22;23548;51.196;6.838;2022-08-25T01:07:28;22.30;73.60
37702;DHT22;23548;51.196;6.838;2022-08-25T01:09:54;22.30;74.40
37702;DHT22;23548;51.196;6.838;2022-08-25T01:12:20;22.20;74.50
37702;DHT22;23548;51.196;6.838;2022-08-25T01:14:48;22.20;74.30
37702;DHT22;23548;51.196;6.838;2022-08-25T01:17:14;22.30;74.00
37702;DHT22;23548;51.196;6.838;2022-08-25T01:19:40;22.40;74.30
37702;DHT22;23548;51.196;6.838;2022-08-25T01:22:07;22.30;74.50
37702;DHT22;23548;51.196;6.838;2022-08-25T01:25:03;22.20;75.10
37702;DHT22;23548;51.196;6.838;2022-08-25T01:27:29;22.10;75.50
37702;DHT22;23548;51.196;6.838;2022-08-25T01:29:55;22.10;75.40
37702;DHT22;23548;51.196;6.838;2022-08-25T01:32:22;22.00;76.20
37702;DHT22;23548;51.196;6.838;2022-08-25T01:34:48;22.00;76.60
37702;DHT22;23548;51.196;6.838;2022-08-25T01:37:15;22.00;77.30
37702;DHT22;23548;51.196;6.838;2022-08-25T01:45:19;21.60;79.10
37702;DHT22;23548;51.196;6.838;2022-08-25T01:47:45;21.70;79.20
37702;DHT22;23548;51.196;6.838;2022-08-25T01:50:12;21.60;78.70
37702;DHT22;23548;51.196;6.838;2022-08-25T01:52:53;21.70;79.50
37702;DHT22;23548;51.196;6.838;2022-08-25T01:55:20;21.60;79.90
37702;DHT22;23548;51.196;6.838;2022-08-25T01:57:46;21.50;80.10
37702;DHT22;23548;51.196;6.838;2022-08-25T02:00:13;21.40;80.90
37702;DHT22;23548;51.196;6.838;2022-08-25T02:02:40;21.30;81.90
37702;DHT22;23548;51.196;6.838;2022-08-25T02:05:08;21.20;82.10
37702;DHT22;23548;51.196;6.838;2022-08-25T02:07:36;21.20;82.10
37702;DHT22;23548;51.196;6.838;2022-08-25T02:10:03;21.30;83.00
37702;DHT22;23548;51.196;6.838;2022-08-25T02:12:31;21.30;83.50
37702;DHT22;23548;51.196;6.838;2022-08-25T02:14:58;21.10;83.80
37702;DHT22;23548;51.196;6.838;2022-08-25T02:17:26;21.00;83.90
37702;DHT22;23548;51.196;6.838;2022-08-25T02:19:52;21.00;84.10
37702;DHT22;23548;51.196;6.838;2022-08-25T02:22:20;21.00;84.90
37702;DHT22;23548;51.196;6.838;2022-08-25T02:24:45;20.90;85.60
37702;DHT22;23548;51.196;6.838;2022-08-25T02:27:12;20.90;86.10
37702;DHT22;23548;51.196;6.838;2022-08-25T02:29:38;20.80;86.90
37702;DHT22;23548;51.196;6.838;2022-08-25T02:32:05;20.80;87.00
37702;DHT22;23548;51.196;6.838;2022-08-25T02:34:31;20.90;87.60
37702;DHT22;23548;51.196;6.838;2022-08-25T02:36:56;20.90;88.00
37702;DHT22;23548;51.196;6.838;2022-08-25T02:39:22;20.80;89.10
37702;DHT22;23548;51.196;6.838;2022-08-25T02:41:48;20.70;89.60
37702;DHT22;23548;51.196;6.838;2022-08-25T02:44:14;20.60;89.80
37702;DHT22;23548;51.196;6.838;2022-08-25T02:46:40;20.60;90.00
37702;DHT22;23548;51.196;6.838;2022-08-25T02:49:06;20.50;90.20
37702;DHT22;23548;51.196;6.838;2022-08-25T02:51:33;20.50;90.30
37702;DHT22;23548;51.196;6.838;2022-08-25T02:54:00;20.50;90.50
37702;DHT22;23548;51.196;6.838;2022-08-25T02:56:28;20.50;90.70
37702;DHT22;23548;51.196;6.838;2022-08-25T02:58:54;20.50;90.80
37702;DHT22;23548;51.196;6.838;2022-08-25T03:01:20;20.50;90.80
37702;DHT22;23548;51.196;6.838;2022-08-25T03:03:47;20.50;90.90
37702;DHT22;23548;51.196;6.838;2022-08-25T03:06:15;20.40;91.20
37702;DHT22;23548;51.196;6.838;2022-08-25T03:08:41;20.40;91.00
37702;DHT22;23548;51.196;6.838;2022-08-25T03:11:08;20.50;90.90
37702;DHT22;23548;51.196;6.838;2022-08-25T03:13:34;20.50;90.70
37702;DHT22;23548;51.196;6.838;2022-08-25T03:16:01;20.50;91.30
37702;DHT22;23548;51.196;6.838;2022-08-25T03:18:27;20.40;91.50
37702;DHT22;23548;51.196;6.838;2022-08-25T03:20:53;20.30;91.70
37702;DHT22;23548;51.196;6.838;2022-08-25T03:23:19;20.30;91.80
37702;DHT22;23548;51.196;6.838;2022-08-25T03:25:45;20.30;91.90
37702;DHT22;23548;51.196;6.838;2022-08-25T03:28:30;20.30;92.30
37702;DHT22;23548;51.196;6.838;2022-08-25T03:30:58;20.20;92.60
37702;DHT22;23548;51.196;6.838;2022-08-25T03:33:29;20.10;93.10
37702;DHT22;23548;51.196;6.838;2022-08-25T03:35:56;20.10;93.60
37702;DHT22;23548;51.196;6.838;2022-08-25T03:38:23;20.10;93.90
37702;DHT22;23548;51.196;6.838;2022-08-25T03:40:50;20.00;94.30
37702;DHT22;23548;51.196;6.838;2022-08-25T03:43:16;20.00;94.70
37702;DHT22;23548;51.196;6.838;2022-08-25T03:45:43;19.90;95.20
37702;DHT22;23548;51.196;6.838;2022-08-25T03:48:09;19.90;95.60
37702;DHT22;23548;51.196;6.838;2022-08-25T03:50:35;19.80;95.90
37702;DHT22;23548;51.196;6.838;2022-08-25T03:53:01;19.80;96.20
37702;DHT22;23548;51.196;6.838;2022-08-25T03:55:27;19.80;96.80
37702;DHT22;23548;51.196;6.838;2022-08-25T03:57:54;19.70;97.50
37702;DHT22;23548;51.196;6.838;2022-08-25T04:00:21;19.60;98.10
37702;DHT22;23548;51.196;6.838;2022-08-25T04:02:47;19.60;98.70
37702;DHT22;23548;51.196;6.838;2022-08-25T04:05:14;19.50;99.40
37702;DHT22;23548;51.196;6.838;2022-08-25T04:07:40;19.60;99.80
37702;DHT22;23548;51.196;6.838;2022-08-25T04:10:08;19.60;99.80
37702;DHT22;23548;51.196;6.838;2022-08-25T04:12:34;19.70;99.90
37702;DHT22;23548;51.196;6.838;2022-08-25T04:15:02;19.70;99.90
37702;DHT22;23548;51.196;6.838;2022-08-25T04:17:28;19.70;99.90
37702;DHT22;23548;51.196;6.838;2022-08-25T04:19:53;19.70;99.90
37702;DHT22;23548;51.196;6.838;2022-08-25T04:22:20;19.70;99.90
37702;DHT22;23548;51.196;6.838;2022-08-25T04:24:46;19.70;99.90
37702;DHT22;23548;51.196;6.838;2022-08-25T04:27:12;19.70;99.90
37702;DHT22;23548;51.196;6.838;2022-08-25T04:29:38;19.60;99.90
37702;DHT22;23548;51.196;6.838;2022-08-25T04:32:04;19.70;99.90
37702;DHT22;23548;51.196;6.838;2022-08-25T04:34:30;19.70;99.90
37702;DHT22;23548;51.196;6.838;2022-08-25T04:36:56;19.70;99.90
37702;DHT22;23548;51.196;6.838;2022-08-25T04:39:22;19.60;99.90
37702;DHT22;23548;51.196;6.838;2022-08-25T04:41:49;19.60;99.90
37702;DHT22;23548;51.196;6.838;2022-08-25T04:44:15;19.60;99.90
37702;DHT22;23548;51.196;6.838;2022-08-25T04:46:41;19.50;99.90
37702;DHT22;23548;51.196;6.838;2022-08-25T04:49:07;19.50;99.90
37702;DHT22;23548;51.196;6.838;2022-08-25T04:51:39;19.60;99.90
37702;DHT22;23548;51.196;6.838;2022-08-25T04:54:08;19.60;99.90
37702;DHT22;23548;51.196;6.838;2022-08-25T04:56:34;19.60;99.90
37702;DHT22;23548;51.196;6.838;2022-08-25T04:59:09;19.70;99.90
37702;DHT22;23548;51.196;6.838;2022-08-25T05:01:35;19.70;99.90
37702;DHT22;23548;51.196;6.838;2022-08-25T05:04:04;19.70;99.90
37702;DHT22;23548;51.196;6.838;2022-08-25T05:06:30;19.80;99.90
37702;DHT22;23548;51.196;6.838;2022-08-25T05:08:57;19.90;99.90
37702;DHT22;23548;51.196;6.838;2022-08-25T05:11:24;19.90;99.90
37702;DHT22;23548;51.196;6.838;2022-08-25T05:13:52;19.90;99.90
37702;DHT22;23548;51.196;6.838;2022-08-25T05:16:19;19.90;99.90
37702;DHT22;23548;51.196;6.838;2022-08-25T05:18:45;20.10;99.90
37702;DHT22;23548;51.196;6.838;2022-08-25T05:21:23;20.00;99.90
37702;DHT22;23548;51.196;6.838;2022-08-25T05:23:52;20.10;99.90
37702;DHT22;23548;51.196;6.838;2022-08-25T05:26:20;20.20;99.90
37702;DHT22;23548;51.196;6.838;2022-08-25T05:28:49;20.30;99.90
37702;DHT22;23548;51.196;6.838;2022-08-25T05:31:16;20.40;99.90
37702;DHT22;23548;51.196;6.838;2022-08-25T05:33:42;20.50;99.90
37702;DHT22;23548;51.196;6.838;2022-08-25T05:36:10;20.60;99.90
37702;DHT22;23548;51.196;6.838;2022-08-25T05:38:36;20.70;99.90
37702;DHT22;23548;51.196;6.838;2022-08-25T05:41:12;20.80;99.90
37702;DHT22;23548;51.196;6.838;2022-08-25T05:43:39;20.80;99.90
37702;DHT22;23548;51.196;6.838;2022-08-25T05:46:06;20.90;99.90
37702;DHT22;23548;51.196;6.838;2022-08-25T05:48:32;21.00;99.90
37702;DHT22;23548;51.196;6.838;2022-08-25T05:51:01;21.00;99.90
37702;DHT22;23548;51.196;6.838;2022-08-25T05:53:29;21.10;99.90
37702;DHT22;23548;51.196;6.838;2022-08-25T05:55:56;21.20;99.90
37702;DHT22;23548;51.196;6.838;2022-08-25T05:58:23;21.30;99.90
37702;DHT22;23548;51.196;6.838;2022-08-25T06:00:50;21.40;99.90
37702;DHT22;23548;51.196;6.838;2022-08-25T06:03:16;21.40;99.90
37702;DHT22;23548;51.196;6.838;2022-08-25T06:05:42;21.60;99.90
37702;DHT22;23548;51.196;6.838;2022-08-25T06:08:08;21.70;99.90
37702;DHT22;23548;51.196;6.838;2022-08-25T06:10:34;21.90;99.90
37702;DHT22;23548;51.196;6.838;2022-08-25T06:13:00;22.10;99.90
37702;DHT22;23548;51.196;6.838;2022-08-25T06:15:26;22.20;99.90
37702;DHT22;23548;51.196;6.838;2022-08-25T06:17:52;22.40;99.80
37702;DHT22;23548;51.196;6.838;2022-08-25T06:20:23;22.50;99.30
37702;DHT22;23548;51.196;6.838;2022-08-25T06:22:50;22.60;99.20
37702;DHT22;23548;51.196;6.838;2022-08-25T06:25:18;22.80;98.50
37702;DHT22;23548;51.196;6.838;2022-08-25T06:27:45;22.90;98.10
37702;DHT22;23548;51.196;6.838;2022-08-25T06:30:15;23.00;97.40
37702;DHT22;23548;51.196;6.838;2022-08-25T06:32:42;23.20;97.20
37702;DHT22;23548;51.196;6.838;2022-08-25T06:35:11;23.30;97.20
37702;DHT22;23548;51.196;6.838;2022-08-25T06:37:37;23.40;96.70
37702;DHT22;23548;51.196;6.838;2022-08-25T06:40:05;23.50;96.30
37702;DHT22;23548;51.196;6.838;2022-08-25T06:42:34;23.60;96.10
37702;DHT22;23548;51.196;6.838;2022-08-25T06:45:00;23.80;95.90
37702;DHT22;23548;51.196;6.838;2022-08-25T06:47:26;23.80;95.60
37702;DHT22;23548;51.196;6.838;2022-08-25T06:49:52;24.00;95.10
37702;DHT22;23548;51.196;6.838;2022-08-25T06:52:18;24.10;94.50
37702;DHT22;23548;51.196;6.838;2022-08-25T06:54:44;24.20;94.40
37702;DHT22;23548;51.196;6.838;2022-08-25T06:57:10;24.30;94.10
37702;DHT22;23548;51.196;6.838;2022-08-25T06:59:36;24.40;94.00
37702;DHT22;23548;51.196;6.838;2022-08-25T07:02:04;24.50;93.60
37702;DHT22;23548;51.196;6.838;2022-08-25T07:04:32;24.60;93.10
37702;DHT22;23548;51.196;6.838;2022-08-25T07:06:58;24.70;92.90
37702;DHT22;23548;51.196;6.838;2022-08-25T07:09:23;24.80;92.70
37702;DHT22;23548;51.196;6.838;2022-08-25T07:11:49;24.90;92.30
37702;DHT22;23548;51.196;6.838;2022-08-25T07:14:17;25.00;91.70
37702;DHT22;23548;51.196;6.838;2022-08-25T07:16:44;25.00;91.60
37702;DHT22;23548;51.196;6.838;2022-08-25T07:19:10;25.10;91.50
37702;DHT22;23548;51.196;6.838;2022-08-25T07:21:38;25.20;91.30
37702;DHT22;23548;51.196;6.838;2022-08-25T07:24:10;25.30;91.10
37702;DHT22;23548;51.196;6.838;2022-08-25T07:26:37;25.30;90.70
37702;DHT22;23548;51.196;6.838;2022-08-25T07:29:09;25.40;90.60
37702;DHT22;23548;51.196;6.838;2022-08-25T07:31:36;25.30;90.60
37702;DHT22;23548;51.196;6.838;2022-08-25T07:34:03;25.30;90.60
37702;DHT22;23548;51.196;6.838;2022-08-25T07:36:47;25.50;90.50
37702;DHT22;23548;51.196;6.838;2022-08-25T07:39:13;25.60;90.30
37702;DHT22;23548;51.196;6.838;2022-08-25T07:41:40;25.70;89.70
37702;DHT22;23548;51.196;6.838;2022-08-25T07:44:07;25.90;89.40
37702;DHT22;23548;51.196;6.838;2022-08-25T07:46:33;26.00;88.60
37702;DHT22;23548;51.196;6.838;2022-08-25T07:48:59;25.90;88.90
37702;DHT22;23548;51.196;6.838;2022-08-25T07:51:25;25.90;88.60
37702;DHT22;23548;51.196;6.838;2022-08-25T07:53:51;25.90;88.80
37702;DHT22;23548;51.196;6.838;2022-08-25T07:56:17;25.70;88.30
37702;DHT22;23548;51.196;6.838;2022-08-25T07:58:44;25.90;88.60
37702;DHT22;23548;51.196;6.838;2022-08-25T08:01:20;26.00;87.70
37702;DHT22;23548;51.196;6.838;2022-08-25T08:03:46;26.20;87.30
37702;DHT22;23548;51.196;6.838;2022-08-25T08:06:15;26.30;86.40
37702;DHT22;23548;51.196;6.838;2022-08-25T08:08:43;26.30;86.60
37702;DHT22;23548;51.196;6.838;2022-08-25T08:11:28;26.30;85.90
37702;DHT22;23548;51.196;6.838;2022-08-25T08:13:56;26.30;85.90
37702;DHT22;23548;51.196;6.838;2022-08-25T08:16:27;26.50;85.80
37702;DHT22;23548;51.196;6.838;2022-08-25T08:18:54;26.60;85.00
37702;DHT22;23548;51.196;6.838;2022-08-25T08:21:23;26.70;85.10
37702;DHT22;23548;51.196;6.838;2022-08-25T08:23:50;26.80;84.40
37702;DHT22;23548;51.196;6.838;2022-08-25T08:26:17;26.80;84.10
37702;DHT22;23548;51.196;6.838;2022-08-25T08:28:43;26.70;84.40
37702;DHT22;23548;51.196;6.838;2022-08-25T08:31:10;26.80;84.00
37702;DHT22;23548;51.196;6.838;2022-08-25T08:33:36;26.80;83.40
37702;DHT22;23548;51.196;6.838;2022-08-25T08:36:06;26.90;83.50
37702;DHT22;23548;51.196;6.838;2022-08-25T08:38:34;26.90;83.20
37702;DHT22;23548;51.196;6.838;2022-08-25T08:49:58;27.10;81.90
37702;DHT22;23548;51.196;6.838;2022-08-25T08:52:42;27.20;81.70
37702;DHT22;23548;51.196;6.838;2022-08-25T08:57:46;27.60;80.90
37702;DHT22;23548;51.196;6.838;2022-08-25T09:00:14;27.70;80.30
37702;DHT22;23548;51.196;6.838;2022-08-25T09:03:15;27.60;80.50
37702;DHT22;23548;51.196;6.838;2022-08-25T09:05:50;27.60;80.40
37702;DHT22;23548;51.196;6.838;2022-08-25T09:08:17;27.60;80.30
37702;DHT22;23548;51.196;6.838;2022-08-25T09:11:05;27.60;80.40
37702;DHT22;23548;51.196;6.838;2022-08-25T09:16:31;27.60;79.60
37702;DHT22;23548;51.196;6.838;2022-08-25T09:25:02;28.10;78.40
37702;DHT22;23548;51.196;6.838;2022-08-25T09:30:10;28.30;78.20
37702;DHT22;23548;51.196;6.838;2022-08-25T09:32:41;28.40;77.90
37702;DHT22;23548;51.196;6.838;2022-08-25T09:35:24;28.30;76.90
37702;DHT22;23548;51.196;6.838;2022-08-25T09:40:21;28.40;77.50
37702;DHT22;23548;51.196;6.838;2022-08-25T09:42:51;28.60;77.00
37702;DHT22;23548;51.196;6.838;2022-08-25T09:45:41;28.40;76.10
37702;DHT22;23548;51.196;6.838;2022-08-25T09:48:32;28.50;76.50
37702;DHT22;23548;51.196;6.838;2022-08-25T09:51:22;28.40;76.10
37702;DHT22;23548;51.196;6.838;2022-08-25T09:56:29;28.50;76.00
37702;DHT22;23548;51.196;6.838;2022-08-25T10:01:49;28.80;74.80
37702;DHT22;23548;51.196;6.838;2022-08-25T10:04:25;29.00;74.20
37702;DHT22;23548;51.196;6.838;2022-08-25T10:06:51;29.10;74.20
37702;DHT22;23548;51.196;6.838;2022-08-25T10:09:53;29.10;74.30
37702;DHT22;23548;51.196;6.838;2022-08-25T10:12:35;29.20;73.80
37702;DHT22;23548;51.196;6.838;2022-08-25T10:17:51;29.20;73.60
37702;DHT22;23548;51.196;6.838;2022-08-25T10:20:26;29.20;73.40
37702;DHT22;23548;51.196;6.838;2022-08-25T10:23:09;29.40;72.50
37702;DHT22;23548;51.196;6.838;2022-08-25T10:25:40;29.30;71.30
37702;DHT22;23548;51.196;6.838;2022-08-25T10:28:20;29.30;71.10
37702;DHT22;23548;51.196;6.838;2022-08-25T10:33:47;29.60;71.50
37702;DHT22;23548;51.196;6.838;2022-08-25T10:38:57;29.50;70.20
37702;DHT22;23548;51.196;6.838;2022-08-25T10:49:44;29.80;69.00
37702;DHT22;23548;51.196;6.838;2022-08-25T10:52:37;29.60;69.40
37702;DHT22;23548;51.196;6.838;2022-08-25T10:55:24;29.90;68.80
37702;DHT22;23548;51.196;6.838;2022-08-25T11:01:16;30.30;67.90
37702;DHT22;23548;51.196;6.838;2022-08-25T11:03:59;30.30;67.00
37702;DHT22;23548;51.196;6.838;2022-08-25T11:06:51;30.10;66.30
37702;DHT22;23548;51.196;6.838;2022-08-25T11:09:25;30.20;67.30
37702;DHT22;23548;51.196;6.838;2022-08-25T11:12:08;30.20;67.20
37702;DHT22;23548;51.196;6.838;2022-08-25T11:14:39;30.30;66.00
37702;DHT22;23548;51.196;6.838;2022-08-25T11:17:40;30.10;66.80
37702;DHT22;23548;51.196;6.838;2022-08-25T11:20:10;30.30;65.90
37702;DHT22;23548;51.196;6.838;2022-08-25T11:22:44;30.40;66.30
37702;DHT22;23548;51.196;6.838;2022-08-25T11:25:33;30.40;65.10
37702;DHT22;23548;51.196;6.838;2022-08-25T11:28:09;30.50;65.50
37702;DHT22;23548;51.196;6.838;2022-08-25T11:30:36;30.70;65.20
37702;DHT22;23548;51.196;6.838;2022-08-25T11:33:03;30.80;63.40
37702;DHT22;23548;51.196;6.838;2022-08-25T11:35:42;30.50;63.70
37702;DHT22;23548;51.196;6.838;2022-08-25T11:41:37;30.50;62.30
37702;DHT22;23548;51.196;6.838;2022-08-25T11:49:47;31.00;59.10
37702;DHT22;23548;51.196;6.838;2022-08-25T11:55:15;30.90;59.10
37702;DHT22;23548;51.196;6.838;2022-08-25T11:57:43;30.90;58.50
37702;DHT22;23548;51.196;6.838;2022-08-25T12:00:11;30.90;58.30
37702;DHT22;23548;51.196;6.838;2022-08-25T12:02:45;31.10;58.40
37702;DHT22;23548;51.196;6.838;2022-08-25T12:11:02;31.30;56.20
37702;DHT22;23548;51.196;6.838;2022-08-25T12:13:44;31.30;56.40
37702;DHT22;23548;51.196;6.838;2022-08-25T12:21:48;31.20;57.10
37702;DHT22;23548;51.196;6.838;2022-08-25T12:24:17;31.20;56.70
37702;DHT22;23548;51.196;6.838;2022-08-25T12:26:54;31.20;55.30
37702;DHT22;23548;51.196;6.838;2022-08-25T12:38:09;31.60;56.40
37702;DHT22;23548;51.196;6.838;2022-08-25T12:40:53;31.60;53.90
37702;DHT22;23548;51.196;6.838;2022-08-25T12:43:28;31.70;54.30
37702;DHT22;23548;51.196;6.838;2022-08-25T12:49:30;31.60;53.60
37702;DHT22;23548;51.196;6.838;2022-08-25T12:52:17;31.60;53.60
37702;DHT22;23548;51.196;6.838;2022-08-25T12:54:59;31.70;53.30
37702;DHT22;23548;51.196;6.838;2022-08-25T12:57:41;31.60;52.30
37702;DHT22;23548;51.196;6.838;2022-08-25T13:11:43;32.00;53.20
37702;DHT22;23548;51.196;6.838;2022-08-25T13:17:00;32.40;53.60
37702;DHT22;23548;51.196;6.838;2022-08-25T13:19:27;32.60;53.10
37702;DHT22;23548;51.196;6.838;2022-08-25T13:21:54;32.80;50.90
37702;DHT22;23548;51.196;6.838;2022-08-25T13:24:25;32.90;50.40
37702;DHT22;23548;51.196;6.838;2022-08-25T13:27:02;32.90;51.00
37702;DHT22;23548;51.196;6.838;2022-08-25T13:29:31;32.70;51.60
37702;DHT22;23548;51.196;6.838;2022-08-25T13:31:59;32.70;51.80
37702;DHT22;23548;51.196;6.838;2022-08-25T13:34:32;33.00;51.80
37702;DHT22;23548;51.196;6.838;2022-08-25T13:37:08;33.20;50.60
37702;DHT22;23548;51.196;6.838;2022-08-25T13:42:34;33.00;50.70
37702;DHT22;23548;51.196;6.838;2022-08-25T13:45:03;33.30;50.20
37702;DHT22;23548;51.196;6.838;2022-08-25T13:47:38;34.80;47.70
37702;DHT22;23548;51.196;6.838;2022-08-25T13:52:39;37.40;45.00
37702;DHT22;23548;51.196;6.838;2022-08-25T13:55:05;38.40;43.20
37702;DHT22;23548;51.196;6.838;2022-08-25T13:57:32;39.00;41.60
37702;DHT22;23548;51.196;6.838;2022-08-25T14:00:06;40.90;40.00
37702;DHT22;23548;51.196;6.838;2022-08-25T14:02:48;41.40;37.90
37702;DHT22;23548;51.196;6.838;2022-08-25T14:05:31;40.00;40.00
37702;DHT22;23548;51.196;6.838;2022-08-25T14:07:58;42.60;36.90
37702;DHT22;23548;51.196;6.838;2022-08-25T14:10:43;42.60;36.00
37702;DHT22;23548;51.196;6.838;2022-08-25T14:13:31;42.30;35.40
37702;DHT22;23548;51.196;6.838;2022-08-25T14:18:46;42.70;33.40
37702;DHT22;23548;51.196;6.838;2022-08-25T14:21:14;41.90;34.30
37702;DHT22;23548;51.196;6.838;2022-08-25T14:23:41;41.60;34.60
37702;DHT22;23548;51.196;6.838;2022-08-25T14:26:07;42.70;33.70
37702;DHT22;23548;51.196;6.838;2022-08-25T14:28:33;43.10;32.50
37702;DHT22;23548;51.196;6.838;2022-08-25T14:31:01;43.00;32.50
37702;DHT22;23548;51.196;6.838;2022-08-25T14:33:32;41.60;33.10
37702;DHT22;23548;51.196;6.838;2022-08-25T14:36:00;38.70;36.80
37702;DHT22;23548;51.196;6.838;2022-08-25T14:38:29;39.00;37.60
37702;DHT22;23548;51.196;6.838;2022-08-25T14:40:55;38.20;38.00
37702;DHT22;23548;51.196;6.838;2022-08-25T14:43:21;39.10;36.70
37702;DHT22;23548;51.196;6.838;2022-08-25T14:45:47;40.00;36.00
37702;DHT22;23548;51.196;6.838;2022-08-25T14:48:28;42.30;33.60
37702;DHT22;23548;51.196;6.838;2022-08-25T14:50:57;43.80;33.20
37702;DHT22;23548;51.196;6.838;2022-08-25T14:53:24;44.80;30.90
37702;DHT22;23548;51.196;6.838;2022-08-25T14:55:50;43.70;30.90
37702;DHT22;23548;51.196;6.838;2022-08-25T14:58:20;42.20;31.90
37702;DHT22;23548;51.196;6.838;2022-08-25T15:00:47;41.10;33.50
37702;DHT22;23548;51.196;6.838;2022-08-25T15:03:16;41.90;32.80
37702;DHT22;23548;51.196;6.838;2022-08-25T15:05:44;42.80;32.10
37702;DHT22;23548;51.196;6.838;2022-08-25T15:08:09;42.70;31.60
37702;DHT22;23548;51.196;6.838;2022-08-25T15:10:54;45.50;30.50
37702;DHT22;23548;51.196;6.838;2022-08-25T15:13:20;45.90;30.00
37702;DHT22;23548;51.196;6.838;2022-08-25T15:15:46;44.20;30.80
37702;DHT22;23548;51.196;6.838;2022-08-25T15:18:13;42.10;31.30
37702;DHT22;23548;51.196;6.838;2022-08-25T15:20:39;42.90;32.50
37702;DHT22;23548;51.196;6.838;2022-08-25T15:23:04;43.30;31.70
37702;DHT22;23548;51.196;6.838;2022-08-25T15:25:30;42.20;31.00
37702;DHT22;23548;51.196;6.838;2022-08-25T15:27:56;42.30;31.40
37702;DHT22;23548;51.196;6.838;2022-08-25T15:30:22;42.30;30.30
37702;DHT22;23548;51.196;6.838;2022-08-25T15:32:49;42.00;31.30
37702;DHT22;23548;51.196;6.838;2022-08-25T15:35:15;42.30;31.20
37702;DHT22;23548;51.196;6.838;2022-08-25T15:37:41;42.80;30.30
37702;DHT22;23548;51.196;6.838;2022-08-25T15:40:07;42.00;30.90
37702;DHT22;23548;51.196;6.838;2022-08-25T15:42:35;43.30;29.40
37702;DHT22;23548;51.196;6.838;2022-08-25T15:45:01;43.40;30.10
37702;DHT22;23548;51.196;6.838;2022-08-25T15:47:27;44.10;28.80
37702;DHT22;23548;51.196;6.838;2022-08-25T15:50:02;45.60;28.90
37702;DHT22;23548;51.196;6.838;2022-08-25T15:52:29;46.80;27.40
37702;DHT22;23548;51.196;6.838;2022-08-25T15:54:55;45.40;27.60
37702;DHT22;23548;51.196;6.838;2022-08-25T15:57:21;44.00;28.60
37702;DHT22;23548;51.196;6.838;2022-08-25T15:59:47;43.60;29.60
37702;DHT22;23548;51.196;6.838;2022-08-25T16:02:13;45.10;29.00
37702;DHT22;23548;51.196;6.838;2022-08-25T16:04:39;43.00;29.60
37702;DHT22;23548;51.196;6.838;2022-08-25T16:07:05;42.60;30.00
37702;DHT22;23548;51.196;6.838;2022-08-25T16:09:31;41.80;31.00
37702;DHT22;23548;51.196;6.838;2022-08-25T16:11:57;41.80;30.40
37702;DHT22;23548;51.196;6.838;2022-08-25T16:14:24;39.70;31.90
37702;DHT22;23548;51.196;6.838;2022-08-25T16:16:50;37.50;34.80
37702;DHT22;23548;51.196;6.838;2022-08-25T16:19:15;35.90;37.10
37702;DHT22;23548;51.196;6.838;2022-08-25T16:21:41;34.90;38.70
37702;DHT22;23548;51.196;6.838;2022-08-25T16:24:07;34.60;40.80
37702;DHT22;23548;51.196;6.838;2022-08-25T16:26:34;34.60;39.60
37702;DHT22;23548;51.196;6.838;2022-08-25T16:29:02;34.40;40.00
37702;DHT22;23548;51.196;6.838;2022-08-25T16:31:28;33.90;40.40
37702;DHT22;23548;51.196;6.838;2022-08-25T16:33:54;33.80;40.80
37702;DHT22;23548;51.196;6.838;2022-08-25T16:36:21;33.80;40.90
37702;DHT22;23548;51.196;6.838;2022-08-25T16:38:49;33.70;40.90
37702;DHT22;23548;51.196;6.838;2022-08-25T16:41:20;33.70;40.40
37702;DHT22;23548;51.196;6.838;2022-08-25T16:43:45;33.70;40.90
37702;DHT22;23548;51.196;6.838;2022-08-25T16:46:14;33.30;41.40
37702;DHT22;23548;51.196;6.838;2022-08-25T16:48:41;33.20;41.40
37702;DHT22;23548;51.196;6.838;2022-08-25T16:51:08;33.00;41.60
37702;DHT22;23548;51.196;6.838;2022-08-25T16:53:35;33.10;41.90
37702;DHT22;23548;51.196;6.838;2022-08-25T16:56:19;32.90;41.70
37702;DHT22;23548;51.196;6.838;2022-08-25T16:58:56;32.70;41.80
37702;DHT22;23548;51.196;6.838;2022-08-25T17:01:23;32.60;42.10
37702;DHT22;23548;51.196;6.838;2022-08-25T17:03:54;32.50;42.50
37702;DHT22;23548;51.196;6.838;2022-08-25T17:06:22;32.40;42.30
37702;DHT22;23548;51.196;6.838;2022-08-25T17:08:48;32.40;42.50
37702;DHT22;23548;51.196;6.838;2022-08-25T17:11:17;32.40;42.50
37702;DHT22;23548;51.196;6.838;2022-08-25T17:13:45;32.80;42.20
37702;DHT22;23548;51.196;6.838;2022-08-25T17:16:12;33.30;41.60
37702;DHT22;23548;51.196;6.838;2022-08-25T17:18:38;33.90;40.60
37702;DHT22;23548;51.196;6.838;2022-08-25T17:21:12;34.40;40.30
37702;DHT22;23548;51.196;6.838;2022-08-25T17:23:40;35.00;38.20
37702;DHT22;23548;51.196;6.838;2022-08-25T17:26:10;35.20;37.90
37702;DHT22;23548;51.196;6.838;2022-08-25T17:28:37;34.20;38.70
37702;DHT22;23548;51.196;6.838;2022-08-25T17:31:05;33.80;39.10
37702;DHT22;23548;51.196;6.838;2022-08-25T17:33:31;33.30;39.80
37702;DHT22;23548;51.196;6.838;2022-08-25T17:35:57;33.10;39.90
37702;DHT22;23548;51.196;6.838;2022-08-25T17:38:24;33.00;40.30
37702;DHT22;23548;51.196;6.838;2022-08-25T17:40:53;32.80;40.40